Littlerock, CA (93543)

1:28 PM PDT on August 20, 2014 (GMT -0700)
ARS W6SRT Weather | Change Station
CLOSE
Current Station
Personal Weather Station
Location: Littlerock, CA
Elevation: 2853 ft
Nearby Weather Stations

Elev 2853 ft 34.53 °N, 117.96 °W | Updated 11 seconds ago

Clear
Clear
85.1 °F
Feels Like 82 °F
N
4.0
Wind Variable Wind from WNW

Today
High -- | Low -- °F
--% Chance of Precip.
Yesterday
High -- | Low -- °F
Precip. -- in
6:16 AM 7:33 PM
Waning Crescent, 19% visible
Pressure 29.88 in
Visibility 10.0 miles
Clouds Clear
Heat Index 82 °F
Dew Point 35 °F
Humidity 17%
Rainfall -999.00 in
Snow Depth Not available.
UV 11 out of 12
Pollen 5.60 out of 12
Ozone Good
Flu Activity Not available.
METAR KPMD 201953Z 35004KT 10SM CLR 29/01 A2996 RMK AO2 SLP118 T02890006

More Conditions Fewer Conditions

Pressure 29.88 in
Visibility 10.0 miles
Clouds Clear
Heat Index 82 °F
Dew Point 35 °F
Humidity 17%
Rainfall -999.00 in
Snow Depth Not available.
UV 11 out of 12
Pollen 5.60 out of 12
Ozone Good
Flu Activity Not available.
METAR KPMD 201953Z 35004KT 10SM CLR 29/01 A2996 RMK AO2 SLP118 T02890006

More Conditions Fewer Conditions

10-Day Weather Forecast

Almanac

Astronomy

Aug. 20, 2014 Rise Set
Actual Time 6:16 AM PDT 7:33 PM PDT
Civil Twilight 5:50 AM PDT 7:59 PM PDT
Nautical Twilight 5:18 AM PDT 8:30 PM PDT
Astronomical Twilight 4:45 AM PDT 9:03 PM PDT
Moon 2:04 AM PDT 4:17 PM PDT
Length of Visible Light 14h 09m
Length of Day
13h 17m
Tomorrow will be 1m 57s shorter.
Waning Crescent, 19% of the Moon is Illuminated
Today
Waning Crescent
Aug 25
New
Sep 2
First Quarter
Sep 8
Full
Sep 15
Last Quarter

Today's Extremes

State Highs State Lows

Community

WunderPhotos

Upload Photos

1,745,750 photos uploaded!

WunderBlogs® & News

By Dr. Jeff Masters
Director of Meteorology, Weather Underground
By Kari Strenfel
Meteorologist, Weather Underground
By Christopher C. Burt
Weather Historian, Weather Underground
August 20, 2014
August 20, 2014
August 20, 2014

Nearby

Air Quality

  Air Quality AQ Index Pollutant
Yesterday Good
OZONE
Yesterday Good
PM10
Current Good
OZONE
Thursday Good
PM10
Thursday Good
OZONE
Thursday Good
CO
Thursday Good
NO2

Snow Depth

Station Depth Elevation
Leavitt Meadows 0 in 7200 ft
Summit Meadow 0 in 9122 ft
CSS Lab 1 in 6900 ft
Adin Mountain 0 in 6200 ft

Earthquake Activity

City Distance Mag. Time & Date
Malibu Beach, California 57 miles 3.4 10:03 AM PDT
2014-08-15
Yucca Valley, California 87 miles 3.8 8:57 PM PDT
2014-08-14
Salton City, California 144 miles 2.6 6:58 AM PDT
2014-08-14
Ojai, California 62 miles 2.6 8:43 PM PDT
2014-08-13
Minimum magnitude displayed is 2.5.

Coastal Water Temperatures

Place Temperature
No Stations Reporting

Nearby Weather Stations